createdAt,value
2023-05-11T00:01:21.804Z,9.40
2023-05-11T00:03:48.880Z,9.40
2023-05-11T00:06:16.138Z,9.40
2023-05-11T00:08:43.164Z,9.40
2023-05-11T00:11:10.274Z,9.40
2023-05-11T00:13:37.376Z,9.40
2023-05-11T00:16:04.923Z,9.40
2023-05-11T00:18:32.115Z,9.40
2023-05-11T00:20:59.121Z,9.40
2023-05-11T00:23:26.302Z,9.40
2023-05-11T00:25:53.247Z,9.40
2023-05-11T00:28:20.720Z,9.40
2023-05-11T00:30:47.614Z,9.40
2023-05-11T00:33:14.788Z,9.40
2023-05-11T00:35:43.848Z,9.50
2023-05-11T00:38:10.779Z,9.50
2023-05-11T00:40:37.715Z,9.60
2023-05-11T00:43:04.662Z,9.60
2023-05-11T00:45:32.299Z,9.70
2023-05-11T00:48:07.198Z,9.70
2023-05-11T00:50:35.442Z,9.70
2023-05-11T00:53:03.291Z,9.70
2023-05-11T00:55:30.900Z,9.70
2023-05-11T00:57:58.097Z,9.70
2023-05-11T01:00:24.981Z,9.70
2023-05-11T01:02:52.835Z,9.70
2023-05-11T01:05:20.344Z,9.80
2023-05-11T01:07:59.006Z,9.70
2023-05-11T01:10:53.604Z,9.70
2023-05-11T01:13:50.877Z,9.70
2023-05-11T01:16:27.219Z,9.80
2023-05-11T01:19:12.727Z,9.80
2023-05-11T01:21:40.940Z,9.60
2023-05-11T01:24:27.178Z,9.60
2023-05-11T01:27:26.226Z,9.60
2023-05-11T01:30:31.512Z,9.50
2023-05-11T01:33:04.407Z,9.60
2023-05-11T01:35:34.494Z,9.60
2023-05-11T01:38:03.060Z,9.70
2023-05-11T01:40:34.286Z,9.70
2023-05-11T01:43:16.438Z,9.70
2023-05-11T01:45:49.182Z,9.70
2023-05-11T01:48:27.388Z,9.70
2023-05-11T01:50:57.604Z,9.70
2023-05-11T01:53:26.397Z,9.80
2023-05-11T01:55:55.637Z,9.80
2023-05-11T01:58:26.155Z,9.80
2023-05-11T02:00:55.305Z,9.80
2023-05-11T02:03:23.257Z,9.80
2023-05-11T02:05:52.070Z,9.80
2023-05-11T02:08:21.533Z,9.80
2023-05-11T02:10:50.404Z,9.80
2023-05-11T02:13:19.078Z,9.80
2023-05-11T02:15:50.336Z,9.80
2023-05-11T02:18:19.412Z,9.80
2023-05-11T02:20:47.803Z,9.80
2023-05-11T02:23:16.290Z,9.70
2023-05-11T02:25:43.926Z,9.70
2023-05-11T02:28:10.905Z,9.70
2023-05-11T02:30:46.111Z,9.70
2023-05-11T02:33:18.162Z,9.60
2023-05-11T02:35:47.092Z,9.50
2023-05-11T02:38:15.429Z,9.50
2023-05-11T02:40:49.437Z,9.40
2023-05-11T02:43:21.868Z,9.50
2023-05-11T02:45:52.805Z,9.50
2023-05-11T02:48:29.277Z,9.50
2023-05-11T02:50:58.081Z,9.60
2023-05-11T02:53:28.114Z,9.60
2023-05-11T02:55:55.991Z,9.60
2023-05-11T02:58:24.042Z,9.60
2023-05-11T03:00:51.658Z,9.60
2023-05-11T03:03:18.924Z,9.50
2023-05-11T03:05:46.072Z,9.50
2023-05-11T03:08:13.337Z,9.60
2023-05-11T03:10:41.986Z,9.60
2023-05-11T03:13:10.202Z,9.60
2023-05-11T03:15:37.888Z,9.60
2023-05-11T03:18:06.934Z,9.60
2023-05-11T03:20:37.032Z,9.60
2023-05-11T03:23:05.701Z,9.50
2023-05-11T03:25:32.916Z,9.60
2023-05-11T03:28:01.905Z,9.60
2023-05-11T03:30:29.763Z,9.50
2023-05-11T03:32:57.287Z,9.60
2023-05-11T03:35:29.454Z,9.60
2023-05-11T03:37:58.409Z,9.70
2023-05-11T03:40:27.929Z,9.80
2023-05-11T03:42:57.378Z,9.80
2023-05-11T03:45:27.534Z,9.90
2023-05-11T03:47:56.533Z,9.90
2023-05-11T03:50:24.251Z,9.90
2023-05-11T03:52:52.242Z,10.00
2023-05-11T03:55:21.712Z,10.00
2023-05-11T03:57:49.178Z,10.10
2023-05-11T04:00:17.165Z,10.10
2023-05-11T04:02:44.699Z,10.20
2023-05-11T04:05:12.576Z,10.20
2023-05-11T04:07:39.786Z,10.20
2023-05-11T04:10:07.382Z,10.20
2023-05-11T04:12:34.377Z,10.30
2023-05-11T04:15:01.390Z,10.40
2023-05-11T04:17:28.307Z,10.40
2023-05-11T04:19:55.320Z,10.50
2023-05-11T04:22:23.424Z,10.60
2023-05-11T04:24:50.373Z,10.60
2023-05-11T04:27:17.360Z,10.70
2023-05-11T04:29:45.059Z,10.70
2023-05-11T04:32:11.987Z,10.80
2023-05-11T04:34:39.163Z,10.80
2023-05-11T04:37:07.550Z,10.90
2023-05-11T04:39:35.066Z,10.90
2023-05-11T04:42:02.191Z,11.00
2023-05-11T04:44:29.390Z,11.10
2023-05-11T04:46:57.294Z,11.10
2023-05-11T04:49:24.475Z,11.10
2023-05-11T04:51:51.608Z,11.20
2023-05-11T04:54:18.511Z,11.30
2023-05-11T04:56:45.605Z,11.40
2023-05-11T04:59:12.557Z,11.40
2023-05-11T05:01:39.452Z,11.50
2023-05-11T05:04:06.731Z,11.60
2023-05-11T05:06:33.919Z,11.70
2023-05-11T05:09:00.953Z,11.80
2023-05-11T05:11:28.129Z,11.90
2023-05-11T05:13:55.591Z,12.00
2023-05-11T05:16:22.653Z,12.00
2023-05-11T05:18:49.619Z,12.20
2023-05-11T05:21:16.550Z,12.20
2023-05-11T05:23:43.412Z,12.30
2023-05-11T05:26:10.579Z,12.40
2023-05-11T05:28:37.675Z,12.50
2023-05-11T05:31:04.661Z,12.60
2023-05-11T05:33:31.746Z,12.70
2023-05-11T05:35:58.680Z,12.70
2023-05-11T05:38:25.849Z,12.80
2023-05-11T05:40:53.235Z,12.90
2023-05-11T05:43:20.269Z,12.90
2023-05-11T05:45:47.368Z,13.10
2023-05-11T05:48:14.338Z,13.10
2023-05-11T05:50:41.410Z,13.30
2023-05-11T05:53:08.432Z,13.40
2023-05-11T05:55:35.874Z,13.40
2023-05-11T05:58:02.870Z,13.50
2023-05-11T06:00:30.073Z,13.50
2023-05-11T06:02:57.275Z,13.60
2023-05-11T06:05:24.244Z,13.80
2023-05-11T06:08:01.850Z,13.90
2023-05-11T06:10:37.886Z,14.00
2023-05-11T06:13:06.038Z,14.20
2023-05-11T06:15:33.653Z,14.40
2023-05-11T06:18:01.028Z,14.50
2023-05-11T06:20:28.051Z,14.60
2023-05-11T06:22:55.010Z,14.70
2023-05-11T06:25:22.226Z,14.80
2023-05-11T06:27:49.154Z,14.70
2023-05-11T06:30:16.402Z,14.90
2023-05-11T06:32:43.751Z,15.00
2023-05-11T06:35:10.784Z,15.20
2023-05-11T06:37:37.727Z,15.20
2023-05-11T06:40:05.022Z,15.60
2023-05-11T06:42:32.021Z,16.10
2023-05-11T06:44:59.002Z,16.50
2023-05-11T06:47:27.157Z,17.70
2023-05-11T06:49:54.432Z,17.20
2023-05-11T06:52:21.315Z,18.00
2023-05-11T06:54:48.473Z,18.70
2023-05-11T06:57:15.383Z,18.30
2023-05-11T06:59:42.444Z,18.40
2023-05-11T07:02:09.724Z,18.50
2023-05-11T07:04:37.400Z,18.00
2023-05-11T07:07:04.359Z,18.10
2023-05-11T07:09:31.317Z,18.50
2023-05-11T07:11:58.248Z,18.40
2023-05-11T07:14:25.159Z,17.70
2023-05-11T07:16:55.265Z,18.30
2023-05-11T07:19:22.229Z,18.30
2023-05-11T07:21:49.230Z,18.70
2023-05-11T07:24:16.262Z,18.60
2023-05-11T07:26:43.202Z,19.40
2023-05-11T07:29:10.151Z,19.10
2023-05-11T07:31:37.344Z,19.20
2023-05-11T07:34:04.793Z,19.50
2023-05-11T07:36:31.759Z,19.80
2023-05-11T07:38:59.701Z,20.30
2023-05-11T07:41:27.079Z,19.90
2023-05-11T07:43:54.732Z,19.50
2023-05-11T07:46:22.078Z,19.20
2023-05-11T07:48:51.572Z,19.60
2023-05-11T07:51:22.365Z,19.30
2023-05-11T07:53:49.348Z,19.60
2023-05-11T07:56:16.790Z,20.50
2023-05-11T07:58:43.826Z,21.40
2023-05-11T08:01:10.780Z,20.50
2023-05-11T08:03:37.864Z,20.00
2023-05-11T08:06:05.671Z,19.90
2023-05-11T08:08:32.842Z,19.90
2023-05-11T08:11:01.536Z,20.00
2023-05-11T08:13:28.786Z,20.40
2023-05-11T08:15:55.820Z,21.00
2023-05-11T08:18:22.906Z,20.90
2023-05-11T08:20:50.217Z,21.20
2023-05-11T08:23:18.396Z,21.00
2023-05-11T08:25:52.849Z,20.90
2023-05-11T08:28:20.618Z,22.30
2023-05-11T08:30:53.597Z,21.00
2023-05-11T08:33:36.614Z,20.50
2023-05-11T08:36:04.860Z,21.10
2023-05-11T08:38:31.895Z,20.80
2023-05-11T08:40:58.871Z,20.60
2023-05-11T08:43:26.421Z,20.80
2023-05-11T08:46:00.198Z,20.90
2023-05-11T08:48:27.695Z,21.40
2023-05-11T08:50:54.648Z,21.30
2023-05-11T08:53:22.632Z,21.40
2023-05-11T08:55:51.610Z,21.50
2023-05-11T08:58:22.314Z,21.70
2023-05-11T09:00:50.237Z,21.60
2023-05-11T09:03:20.412Z,22.60
2023-05-11T09:05:48.527Z,22.60
2023-05-11T09:08:18.133Z,22.80
2023-05-11T09:10:45.765Z,23.80
2023-05-11T09:13:13.127Z,24.40
2023-05-11T09:15:40.401Z,24.20
2023-05-11T09:18:08.024Z,24.30
2023-05-11T09:20:35.061Z,24.70
2023-05-11T09:23:02.162Z,24.40
2023-05-11T09:25:35.177Z,24.00
2023-05-11T09:28:02.230Z,23.60
2023-05-11T09:30:30.309Z,23.80
2023-05-11T09:32:59.070Z,23.30
2023-05-11T09:35:34.231Z,23.90
2023-05-11T09:38:14.309Z,24.30
2023-05-11T09:40:50.228Z,24.60
2023-05-11T09:43:20.011Z,25.00
2023-05-11T09:45:50.034Z,24.90
2023-05-11T09:48:17.137Z,25.10
2023-05-11T09:50:44.347Z,25.30
2023-05-11T09:53:12.157Z,24.60
2023-05-11T09:55:39.153Z,24.70
2023-05-11T09:58:06.221Z,25.30
2023-05-11T10:00:33.268Z,25.20
2023-05-11T10:03:08.385Z,24.90
2023-05-11T10:05:37.827Z,24.20
2023-05-11T10:08:06.584Z,23.50
2023-05-11T10:10:34.567Z,24.20
2023-05-11T10:13:03.599Z,24.70
2023-05-11T10:15:33.397Z,24.30
2023-05-11T10:18:01.453Z,24.80
2023-05-11T10:20:28.584Z,25.30
2023-05-11T10:22:56.263Z,24.70
2023-05-11T10:25:24.722Z,24.80
2023-05-11T10:27:52.115Z,24.80
2023-05-11T10:30:19.452Z,23.70
2023-05-11T10:32:47.377Z,24.40
2023-05-11T10:35:14.677Z,25.20
2023-05-11T10:37:46.530Z,25.00
2023-05-11T10:40:14.255Z,24.50
2023-05-11T10:43:06.288Z,24.90
2023-05-11T10:46:04.110Z,24.50
2023-05-11T10:49:12.104Z,24.70
2023-05-11T10:52:02.058Z,24.90
2023-05-11T10:55:10.929Z,24.50
2023-05-11T10:58:14.321Z,24.60
2023-05-11T11:01:05.654Z,24.50
2023-05-11T11:03:32.856Z,24.90
2023-05-11T11:06:00.960Z,24.50
2023-05-11T11:08:28.691Z,24.50
2023-05-11T11:10:58.201Z,24.70
2023-05-11T11:13:25.293Z,24.80
2023-05-11T11:15:58.955Z,25.00
2023-05-11T11:18:27.978Z,25.00
2023-05-11T11:20:57.544Z,24.50
2023-05-11T11:23:49.708Z,23.90
2023-05-11T11:26:50.433Z,24.60
2023-05-11T11:29:17.769Z,24.50
2023-05-11T11:31:45.024Z,24.00
2023-05-11T11:34:30.444Z,24.40
2023-05-11T11:37:06.837Z,24.50
2023-05-11T11:39:43.369Z,24.90
2023-05-11T11:42:15.578Z,24.70
2023-05-11T11:44:44.367Z,24.10
2023-05-11T11:47:17.509Z,23.50
2023-05-11T11:49:49.683Z,23.90
2023-05-11T11:52:29.183Z,23.20
2023-05-11T11:54:59.801Z,24.00
2023-05-11T11:57:32.970Z,23.60
2023-05-11T12:00:00.998Z,24.40
2023-05-11T12:02:29.013Z,24.10
2023-05-11T12:05:02.234Z,22.50
2023-05-11T12:07:33.716Z,23.20
2023-05-11T12:10:04.395Z,23.90
2023-05-11T12:12:31.762Z,23.50
2023-05-11T12:15:00.091Z,24.20
2023-05-11T12:17:29.901Z,24.50
2023-05-11T12:20:15.031Z,24.30
2023-05-11T12:22:42.230Z,24.60
2023-05-11T12:25:11.452Z,24.50
2023-05-11T12:27:49.858Z,25.10
2023-05-11T12:30:24.875Z,25.00
2023-05-11T12:35:28.126Z,24.90
2023-05-11T12:37:56.131Z,24.20
2023-05-11T12:40:23.478Z,24.50
2023-05-11T12:42:57.634Z,25.00
2023-05-11T12:45:25.890Z,25.10
2023-05-11T12:47:55.147Z,25.20
2023-05-11T12:50:23.036Z,24.60
2023-05-11T12:52:50.491Z,24.70
2023-05-11T12:55:28.671Z,24.30
2023-05-11T12:58:17.100Z,23.50
2023-05-11T13:00:54.770Z,24.20
2023-05-11T13:03:23.109Z,22.20
2023-05-11T13:05:50.574Z,22.20
2023-05-11T13:08:20.246Z,21.50
2023-05-11T13:10:49.369Z,22.50
2023-05-11T13:13:28.933Z,23.40
2023-05-11T13:15:56.450Z,23.50
2023-05-11T13:18:24.075Z,22.90
2023-05-11T13:21:10.260Z,21.70
2023-05-11T13:23:37.365Z,23.00
2023-05-11T13:26:04.386Z,23.40
2023-05-11T13:28:33.802Z,23.50
2023-05-11T13:31:01.976Z,23.50
2023-05-11T13:33:29.256Z,23.70
2023-05-11T13:35:56.158Z,24.20
2023-05-11T13:38:23.418Z,24.40
2023-05-11T13:40:50.557Z,23.50
2023-05-11T13:43:17.520Z,23.70
2023-05-11T13:45:44.489Z,23.80
2023-05-11T13:48:11.691Z,23.40
2023-05-11T13:50:40.555Z,23.00
2023-05-11T13:53:07.696Z,23.10
2023-05-11T13:55:38.172Z,23.00
2023-05-11T13:58:06.463Z,22.90
2023-05-11T14:00:35.172Z,22.70
2023-05-11T14:03:02.826Z,22.90
2023-05-11T14:05:32.903Z,23.00
2023-05-11T14:08:02.921Z,22.80
2023-05-11T14:10:30.026Z,22.90
2023-05-11T14:12:56.989Z,22.20
2023-05-11T14:15:23.957Z,22.50
2023-05-11T14:17:53.474Z,22.80
2023-05-11T14:20:22.794Z,21.50
2023-05-11T14:22:49.974Z,20.90
2023-05-11T14:25:17.301Z,21.90
2023-05-11T14:27:44.858Z,22.40
2023-05-11T14:30:12.121Z,22.30
2023-05-11T14:32:39.318Z,22.20
2023-05-11T14:35:06.847Z,22.40
2023-05-11T14:37:34.191Z,22.30
2023-05-11T14:40:01.409Z,22.70
2023-05-11T14:42:32.709Z,22.70
2023-05-11T14:45:00.910Z,22.50
2023-05-11T14:47:35.063Z,22.30
2023-05-11T14:50:02.210Z,21.80
2023-05-11T14:52:29.209Z,22.20
2023-05-11T14:54:56.417Z,22.10
2023-05-11T14:57:23.464Z,21.90
2023-05-11T14:59:58.910Z,21.80
2023-05-11T15:02:27.452Z,20.80
2023-05-11T15:04:55.043Z,21.50
2023-05-11T15:07:26.590Z,20.90
2023-05-11T15:09:53.867Z,20.90
2023-05-11T15:12:23.876Z,21.00
2023-05-11T15:14:51.209Z,21.20
2023-05-11T15:17:19.695Z,21.20
2023-05-11T15:19:51.269Z,20.70
2023-05-11T15:22:19.259Z,21.00
2023-05-11T15:24:49.563Z,21.20
2023-05-11T15:27:16.897Z,21.40
2023-05-11T15:29:44.151Z,21.30
2023-05-11T15:32:14.542Z,21.30
2023-05-11T15:34:57.900Z,21.20
2023-05-11T15:37:26.880Z,21.20
2023-05-11T15:39:53.848Z,21.40
2023-05-11T15:42:21.046Z,21.30
2023-05-11T15:44:48.009Z,21.10
2023-05-11T15:47:15.001Z,21.10
2023-05-11T15:49:44.789Z,21.00
2023-05-11T15:52:14.197Z,20.80
2023-05-11T15:54:41.150Z,20.80
2023-05-11T15:57:08.241Z,20.70
2023-05-11T15:59:35.430Z,20.30
2023-05-11T16:02:02.658Z,20.30
2023-05-11T16:04:29.813Z,20.40
2023-05-11T16:06:58.873Z,20.10
2023-05-11T16:09:28.692Z,20.00
2023-05-11T16:11:56.256Z,20.20
2023-05-11T16:14:23.333Z,20.20
2023-05-11T16:16:50.889Z,20.00
2023-05-11T16:19:17.918Z,19.80
2023-05-11T16:21:45.197Z,19.90
2023-05-11T16:24:16.658Z,19.70
2023-05-11T16:26:43.897Z,19.80
2023-05-11T16:29:13.321Z,19.80
2023-05-11T16:31:40.426Z,19.80
2023-05-11T16:34:07.501Z,19.30
2023-05-11T16:36:36.810Z,19.40
2023-05-11T16:39:05.523Z,19.40
2023-05-11T16:41:32.587Z,19.60
2023-05-11T16:43:59.574Z,19.30
2023-05-11T16:46:27.205Z,19.30
2023-05-11T16:48:55.043Z,19.40
2023-05-11T16:51:28.109Z,19.50
2023-05-11T16:53:55.101Z,19.60
2023-05-11T16:56:22.406Z,19.40
2023-05-11T16:58:49.434Z,19.20
2023-05-11T17:01:16.865Z,19.40
2023-05-11T17:03:44.157Z,18.80
2023-05-11T17:06:14.618Z,18.90
2023-05-11T17:08:41.993Z,18.50
2023-05-11T17:11:09.021Z,18.60
2023-05-11T17:13:35.983Z,18.30
2023-05-11T17:16:03.094Z,18.30
2023-05-11T17:18:31.432Z,18.30
2023-05-11T17:20:58.499Z,18.20
2023-05-11T17:23:26.097Z,18.10
2023-05-11T17:25:55.744Z,18.00
2023-05-11T17:28:25.273Z,17.90
2023-05-11T17:30:52.780Z,17.80
2023-05-11T17:33:20.004Z,17.90
2023-05-11T17:35:47.013Z,17.70
2023-05-11T17:38:14.169Z,17.70
2023-05-11T17:40:41.384Z,17.90
2023-05-11T17:43:08.274Z,17.70
2023-05-11T17:45:35.521Z,17.60
2023-05-11T17:48:02.551Z,17.50
2023-05-11T17:50:31.451Z,17.50
2023-05-11T17:52:58.479Z,17.50
2023-05-11T17:55:25.548Z,17.50
2023-05-11T17:57:52.699Z,17.40
2023-05-11T18:00:20.261Z,17.30
2023-05-11T18:02:51.418Z,17.30
2023-05-11T18:05:18.536Z,17.10
2023-05-11T18:07:45.616Z,17.00
2023-05-11T18:10:15.373Z,17.00
2023-05-11T18:12:42.491Z,16.80
2023-05-11T18:15:10.956Z,16.60
2023-05-11T18:17:37.977Z,16.70
2023-05-11T18:20:06.424Z,16.60
2023-05-11T18:22:34.293Z,16.40
2023-05-11T18:25:02.938Z,16.30
2023-05-11T18:27:30.055Z,16.20
2023-05-11T18:30:00.063Z,16.20
2023-05-11T18:32:27.012Z,16.10
2023-05-11T18:34:54.520Z,16.10
2023-05-11T18:37:21.467Z,16.10
2023-05-11T18:39:49.841Z,16.10
2023-05-11T18:42:16.788Z,16.00
2023-05-11T18:44:45.144Z,16.00
2023-05-11T18:47:12.527Z,15.70
2023-05-11T18:49:41.264Z,15.50
2023-05-11T18:52:10.302Z,15.30
2023-05-11T18:54:37.388Z,15.30
2023-05-11T18:57:08.057Z,15.20
2023-05-11T18:59:38.721Z,15.20
2023-05-11T19:02:05.815Z,14.90
2023-05-11T19:04:32.806Z,14.90
2023-05-11T19:07:00.187Z,14.70
2023-05-11T19:09:28.184Z,14.60
2023-05-11T19:11:55.429Z,14.40
2023-05-11T19:14:22.486Z,14.30
2023-05-11T19:16:49.477Z,14.30
2023-05-11T19:19:16.434Z,14.20
2023-05-11T19:21:44.740Z,13.90
2023-05-11T19:24:12.330Z,14.00
2023-05-11T19:26:39.382Z,14.00
2023-05-11T19:29:09.423Z,13.80
2023-05-11T19:31:36.479Z,13.80
2023-05-11T19:34:03.561Z,13.80
2023-05-11T19:36:30.766Z,13.70
2023-05-11T19:38:57.897Z,13.50
2023-05-11T19:41:25.226Z,13.50
2023-05-11T19:43:52.244Z,13.50
2023-05-11T19:46:19.189Z,13.50
2023-05-11T19:48:46.395Z,13.40
2023-05-11T19:51:13.443Z,13.40
2023-05-11T19:53:40.491Z,13.30
2023-05-11T19:56:12.823Z,13.10
2023-05-11T19:58:40.345Z,13.10
2023-05-11T20:01:07.351Z,13.00
2023-05-11T20:03:34.526Z,12.90
2023-05-11T20:06:01.656Z,13.10
2023-05-11T20:08:28.830Z,13.00
2023-05-11T20:10:56.064Z,12.90
2023-05-11T20:13:23.290Z,12.80
2023-05-11T20:15:51.023Z,12.80
2023-05-11T20:18:19.353Z,12.90
2023-05-11T20:20:46.423Z,12.80
2023-05-11T20:23:13.778Z,12.70
2023-05-11T20:25:44.179Z,12.60
2023-05-11T20:28:12.014Z,12.50
2023-05-11T20:30:38.989Z,12.40
2023-05-11T20:35:36.265Z,12.30
2023-05-11T20:38:03.164Z,12.40
2023-05-11T20:40:32.729Z,12.70
2023-05-11T20:43:06.412Z,12.70
2023-05-11T20:45:33.530Z,12.60
2023-05-11T20:48:00.657Z,12.40
2023-05-11T20:50:27.617Z,12.50
2023-05-11T20:52:54.683Z,12.30
2023-05-11T20:55:22.004Z,12.40
2023-05-11T20:57:49.137Z,12.40
2023-05-11T21:00:16.457Z,12.30
2023-05-11T21:02:44.698Z,12.10
2023-05-11T21:05:11.961Z,12.10
2023-05-11T21:07:38.850Z,12.10
2023-05-11T21:10:06.286Z,12.00
2023-05-11T21:12:33.351Z,12.00
2023-05-11T21:15:00.426Z,11.90
2023-05-11T21:17:27.884Z,11.80
2023-05-11T21:19:57.594Z,11.90
2023-05-11T21:22:24.582Z,11.90
2023-05-11T21:24:51.623Z,11.80
2023-05-11T21:27:18.558Z,11.70
2023-05-11T21:29:45.536Z,11.60
2023-05-11T21:32:12.469Z,11.70
2023-05-11T21:34:39.651Z,11.70
2023-05-11T21:37:06.555Z,11.70
2023-05-11T21:39:33.723Z,11.60
2023-05-11T21:42:00.799Z,11.60
2023-05-11T21:44:30.233Z,11.60
2023-05-11T21:46:57.407Z,11.50
2023-05-11T21:49:24.450Z,11.40
2023-05-11T21:51:51.441Z,11.50
2023-05-11T21:54:22.290Z,11.50
2023-05-11T21:56:50.265Z,11.30
2023-05-11T21:59:20.029Z,11.40
2023-05-11T22:01:49.320Z,11.40
2023-05-11T22:04:16.350Z,11.20
2023-05-11T22:06:43.758Z,11.20
2023-05-11T22:09:11.550Z,11.30
2023-05-11T22:11:39.140Z,11.20
2023-05-11T22:14:06.577Z,11.30
2023-05-11T22:16:33.674Z,11.20
2023-05-11T22:19:00.725Z,11.30
2023-05-11T22:21:28.353Z,11.40
2023-05-11T22:23:55.398Z,11.30
2023-05-11T22:26:22.354Z,11.30
2023-05-11T22:28:49.300Z,11.20
2023-05-11T22:31:16.740Z,11.00
2023-05-11T22:33:43.786Z,11.00
2023-05-11T22:36:12.145Z,11.10
2023-05-11T22:38:39.201Z,10.90
2023-05-11T22:41:06.485Z,11.00
2023-05-11T22:43:34.049Z,11.10
2023-05-11T22:46:01.123Z,11.10
2023-05-11T22:48:28.090Z,10.70
2023-05-11T22:50:55.055Z,10.80
2023-05-11T22:53:23.214Z,11.00
2023-05-11T22:55:50.126Z,10.90
2023-05-11T22:58:17.198Z,10.70
2023-05-11T23:00:44.167Z,10.80
2023-05-11T23:03:11.727Z,10.60
2023-05-11T23:05:39.012Z,10.60
2023-05-11T23:08:06.096Z,10.60
2023-05-11T23:10:33.186Z,10.50
2023-05-11T23:13:00.123Z,10.30
2023-05-11T23:15:27.131Z,10.30
2023-05-11T23:17:54.084Z,10.40
2023-05-11T23:20:21.473Z,10.20
2023-05-11T23:22:48.510Z,10.20
2023-05-11T23:25:15.663Z,10.20
2023-05-11T23:27:42.549Z,10.40
2023-05-11T23:30:10.160Z,10.30
2023-05-11T23:32:37.262Z,10.20
2023-05-11T23:35:04.558Z,10.20
2023-05-11T23:37:31.543Z,10.40
2023-05-11T23:39:58.427Z,10.20
2023-05-11T23:42:25.341Z,10.10
2023-05-11T23:44:52.672Z,10.00
2023-05-11T23:47:19.737Z,10.00
2023-05-11T23:49:46.629Z,10.00
2023-05-11T23:52:13.668Z,10.00
2023-05-11T23:54:40.696Z,10.00
2023-05-11T23:57:07.663Z,10.00
2023-05-11T23:59:34.718Z,10.00
